createdAt,value
2023-09-18T00:00:51.762Z,8.33
2023-09-18T00:03:20.152Z,7.53
2023-09-18T00:05:49.032Z,7.90
2023-09-18T00:08:17.229Z,8.90
2023-09-18T00:10:48.846Z,11.40
2023-09-18T00:13:16.899Z,5.80
2023-09-18T00:15:45.935Z,9.30
2023-09-18T00:18:15.871Z,7.27
2023-09-18T00:20:44.211Z,9.27
2023-09-18T00:23:12.273Z,8.20
2023-09-18T00:25:42.229Z,10.10
2023-09-18T00:28:10.370Z,6.23
2023-09-18T00:30:40.177Z,6.40
2023-09-18T00:33:07.992Z,7.60
2023-09-18T00:35:37.314Z,12.10
2023-09-18T00:38:05.398Z,8.50
2023-09-18T00:40:33.175Z,7.60
2023-09-18T00:43:00.866Z,7.77
2023-09-18T00:45:29.106Z,9.53
2023-09-18T00:47:56.964Z,10.23
2023-09-18T00:50:25.759Z,9.23
2023-09-18T00:52:55.480Z,12.50
2023-09-18T00:55:23.335Z,8.97
2023-09-18T00:57:51.679Z,7.10
2023-09-18T01:00:19.706Z,8.90
2023-09-18T01:02:47.890Z,7.93
2023-09-18T01:05:17.697Z,7.00
2023-09-18T01:07:46.359Z,8.47
2023-09-18T01:10:17.640Z,6.90
2023-09-18T01:12:49.763Z,13.73
2023-09-18T01:15:24.016Z,6.60
2023-09-18T01:17:52.151Z,5.83
2023-09-18T01:20:20.112Z,6.70
2023-09-18T01:22:50.841Z,6.93
2023-09-18T01:25:18.661Z,7.07
2023-09-18T01:27:46.480Z,6.10
2023-09-18T01:30:16.655Z,7.90
2023-09-18T01:32:46.736Z,7.90
2023-09-18T01:35:15.411Z,7.93
2023-09-18T01:37:43.599Z,9.57
2023-09-18T01:40:13.199Z,8.30
2023-09-18T01:42:42.779Z,7.73
2023-09-18T01:45:11.179Z,8.83
2023-09-18T01:47:39.120Z,8.30
2023-09-18T01:50:08.043Z,10.13
2023-09-18T01:52:36.970Z,4.10
2023-09-18T01:55:06.541Z,6.50
2023-09-18T01:57:35.619Z,4.90
2023-09-18T02:00:08.371Z,7.57
2023-09-18T02:02:38.956Z,8.60
2023-09-18T02:05:13.641Z,5.03
2023-09-18T02:07:41.724Z,8.53
2023-09-18T02:10:10.421Z,11.63
2023-09-18T02:12:39.634Z,16.80
2023-09-18T02:15:11.009Z,13.27
2023-09-18T02:17:39.303Z,11.30
2023-09-18T02:20:12.777Z,18.23
2023-09-18T02:22:41.884Z,17.07
2023-09-18T02:25:10.671Z,11.53
2023-09-18T02:27:39.923Z,9.87
2023-09-18T02:30:09.133Z,14.23
2023-09-18T02:32:37.834Z,20.23
2023-09-18T02:35:08.395Z,12.80
2023-09-18T02:37:36.299Z,13.30
2023-09-18T02:40:06.226Z,9.80
2023-09-18T02:42:33.999Z,24.37
2023-09-18T02:45:03.135Z,11.27
2023-09-18T02:47:30.950Z,9.33
2023-09-18T02:49:58.781Z,19.67
2023-09-18T02:52:26.683Z,14.60
2023-09-18T02:54:54.448Z,26.03
2023-09-18T02:57:22.234Z,20.00
2023-09-18T02:59:50.097Z,14.40
2023-09-18T03:02:19.463Z,14.20
2023-09-18T03:04:47.391Z,11.13
2023-09-18T03:07:15.231Z,14.00
2023-09-18T03:09:44.136Z,18.60
2023-09-18T03:12:12.282Z,13.07
2023-09-18T03:14:40.235Z,13.53
2023-09-18T03:17:08.048Z,15.83
2023-09-18T03:19:37.182Z,17.37
2023-09-18T03:22:05.156Z,21.50
2023-09-18T03:24:32.982Z,13.90
2023-09-18T03:27:00.729Z,13.40
2023-09-18T03:29:30.730Z,13.70
2023-09-18T03:32:00.003Z,10.73
2023-09-18T03:34:28.333Z,9.87
2023-09-18T03:36:58.043Z,11.73
2023-09-18T03:39:25.933Z,10.00
2023-09-18T03:41:53.813Z,12.57
2023-09-18T03:44:21.924Z,15.63
2023-09-18T03:46:49.761Z,15.57
2023-09-18T03:49:17.574Z,11.10
2023-09-18T03:51:45.821Z,12.57
2023-09-18T03:54:14.904Z,16.87
2023-09-18T03:56:42.847Z,15.90
2023-09-18T03:59:10.697Z,10.53
2023-09-18T04:01:38.668Z,13.90
2023-09-18T04:04:07.081Z,10.87
2023-09-18T04:06:46.176Z,11.53
2023-09-18T04:09:16.392Z,9.80
2023-09-18T04:11:44.203Z,6.77
2023-09-18T04:14:12.081Z,15.30
2023-09-18T04:16:42.928Z,13.20
2023-09-18T04:19:11.284Z,9.97
2023-09-18T04:21:39.175Z,11.47
2023-09-18T04:24:07.554Z,11.37
2023-09-18T04:26:36.699Z,14.03
2023-09-18T04:29:04.696Z,16.70
2023-09-18T04:31:33.131Z,13.70
2023-09-18T04:34:00.882Z,12.70
2023-09-18T04:36:28.816Z,18.97
2023-09-18T04:38:56.557Z,13.30
2023-09-18T04:41:24.410Z,9.87
2023-09-18T04:43:53.702Z,14.07
2023-09-18T04:46:21.562Z,13.60
2023-09-18T04:48:49.529Z,11.40
2023-09-18T04:51:17.514Z,18.93
2023-09-18T04:53:45.335Z,16.40
2023-09-18T04:56:13.557Z,7.13
2023-09-18T04:58:41.662Z,10.90
2023-09-18T05:01:12.364Z,9.03
2023-09-18T05:03:43.437Z,9.77
2023-09-18T05:06:11.781Z,12.37
2023-09-18T05:08:40.759Z,11.93
2023-09-18T05:11:08.698Z,14.57
2023-09-18T05:13:36.662Z,11.20
2023-09-18T05:16:04.611Z,9.90
2023-09-18T05:18:33.856Z,13.13
2023-09-18T05:21:03.040Z,12.30
2023-09-18T05:23:32.955Z,24.27
2023-09-18T05:26:00.949Z,14.93
2023-09-18T05:28:28.763Z,10.00
2023-09-18T05:30:56.653Z,10.63
2023-09-18T05:33:24.692Z,8.40
2023-09-18T05:35:53.830Z,14.20
2023-09-18T05:38:21.723Z,18.03
2023-09-18T05:40:49.535Z,14.90
2023-09-18T05:43:17.450Z,15.77
2023-09-18T05:45:45.219Z,15.37
2023-09-18T05:48:12.967Z,19.03
2023-09-18T05:50:42.971Z,14.70
2023-09-18T05:53:12.779Z,12.57
2023-09-18T05:55:40.887Z,9.77
2023-09-18T05:58:09.428Z,11.23
2023-09-18T06:00:37.962Z,11.10
2023-09-18T06:03:07.379Z,18.53
2023-09-18T06:05:35.862Z,18.23
2023-09-18T06:08:03.932Z,16.23
2023-09-18T06:10:43.633Z,14.70
2023-09-18T06:13:11.667Z,11.50
2023-09-18T06:15:39.450Z,7.77
2023-09-18T06:18:07.815Z,12.10
2023-09-18T06:20:35.832Z,11.87
2023-09-18T06:23:04.818Z,11.53
2023-09-18T06:25:33.948Z,9.40
2023-09-18T06:28:04.214Z,23.63
2023-09-18T06:30:34.568Z,8.80
2023-09-18T06:33:05.105Z,18.37
2023-09-18T06:35:33.138Z,8.20
2023-09-18T06:38:00.976Z,14.43
2023-09-18T06:40:30.779Z,16.83
2023-09-18T06:43:03.474Z,8.70
2023-09-18T06:45:32.126Z,14.23
2023-09-18T06:48:01.503Z,11.90
2023-09-18T06:50:29.532Z,10.30
2023-09-18T06:52:57.382Z,29.53
2023-09-18T06:55:25.273Z,17.10
2023-09-18T06:57:53.344Z,14.37
2023-09-18T07:00:23.139Z,17.80
2023-09-18T07:02:51.487Z,8.83
2023-09-18T07:05:19.445Z,7.90
2023-09-18T07:07:50.105Z,9.77
2023-09-18T07:10:18.450Z,11.67
2023-09-18T07:12:46.315Z,5.40
2023-09-18T07:15:14.168Z,14.90
2023-09-18T07:17:43.372Z,10.70
2023-09-18T07:20:15.953Z,8.80
2023-09-18T07:22:49.149Z,10.43
2023-09-18T07:25:17.154Z,7.93
2023-09-18T07:27:45.973Z,7.40
2023-09-18T07:30:17.215Z,9.33
2023-09-18T07:32:47.037Z,7.67
2023-09-18T07:35:16.013Z,3.57
2023-09-18T07:37:45.287Z,14.60
2023-09-18T07:40:13.632Z,5.80
2023-09-18T07:42:41.434Z,5.07
2023-09-18T07:45:09.952Z,8.27
2023-09-18T07:47:40.911Z,6.00
2023-09-18T07:50:10.655Z,9.50
2023-09-18T07:52:38.862Z,9.50
2023-09-18T07:55:07.834Z,13.00
2023-09-18T07:57:35.732Z,4.70
2023-09-18T08:00:08.686Z,12.60
2023-09-18T08:02:37.081Z,8.03
2023-09-18T08:05:06.049Z,11.20
2023-09-18T08:07:36.340Z,2.60
2023-09-18T08:10:07.296Z,6.73
2023-09-18T08:12:35.415Z,7.33
2023-09-18T08:15:03.917Z,4.90
2023-09-18T08:17:32.271Z,5.17
2023-09-18T08:20:00.279Z,3.50
2023-09-18T08:22:28.647Z,5.47
2023-09-18T08:24:57.877Z,3.83
2023-09-18T08:27:26.846Z,7.07
2023-09-18T08:29:54.622Z,4.13
2023-09-18T08:32:22.576Z,8.97
2023-09-18T08:34:50.427Z,5.47
2023-09-18T08:37:18.309Z,6.13
2023-09-18T08:39:46.178Z,4.60
2023-09-18T08:42:17.399Z,4.50
2023-09-18T08:44:50.039Z,3.80
2023-09-18T08:47:19.788Z,6.40
2023-09-18T08:49:50.409Z,3.87
2023-09-18T08:52:19.036Z,5.43
2023-09-18T08:54:48.235Z,6.10
2023-09-18T08:57:17.663Z,10.43
2023-09-18T08:59:47.158Z,5.93
2023-09-18T09:02:15.597Z,10.33
2023-09-18T09:04:43.706Z,6.10
2023-09-18T09:07:11.740Z,5.37
2023-09-18T09:09:39.931Z,3.87
2023-09-18T09:12:08.447Z,5.57
2023-09-18T09:14:37.861Z,2.27
2023-09-18T09:17:06.061Z,4.77
2023-09-18T09:19:38.091Z,5.13
2023-09-18T09:22:07.143Z,6.20
2023-09-18T09:24:40.094Z,6.07
2023-09-18T09:27:08.098Z,6.30
2023-09-18T09:29:43.926Z,5.03
2023-09-18T09:32:16.916Z,4.10
2023-09-18T09:34:45.823Z,6.60
2023-09-18T09:37:14.631Z,11.33
2023-09-18T09:39:50.812Z,5.30
2023-09-18T09:42:26.448Z,6.00
2023-09-18T09:45:05.968Z,4.93
2023-09-18T09:47:36.306Z,3.83
2023-09-18T09:50:11.167Z,9.60
2023-09-18T09:52:47.785Z,7.10
2023-09-18T09:55:31.055Z,7.03
2023-09-18T09:58:01.589Z,6.80
2023-09-18T10:00:37.857Z,11.13
2023-09-18T10:03:07.420Z,10.57
2023-09-18T10:05:37.452Z,7.27
2023-09-18T10:08:08.525Z,11.50
2023-09-18T10:10:39.524Z,6.10
2023-09-18T10:13:13.230Z,7.40
2023-09-18T10:15:44.643Z,6.70
2023-09-18T10:18:25.129Z,6.67
2023-09-18T10:20:55.583Z,9.97
2023-09-18T10:23:41.055Z,11.40
2023-09-18T10:26:12.636Z,10.00
2023-09-18T10:28:42.145Z,3.77
2023-09-18T10:31:12.948Z,7.23
2023-09-18T10:33:41.959Z,9.47
2023-09-18T10:36:12.063Z,4.53
2023-09-18T10:38:41.324Z,11.70
2023-09-18T10:41:11.350Z,4.20
2023-09-18T10:43:39.785Z,9.73
2023-09-18T10:46:07.739Z,3.00
2023-09-18T10:48:37.597Z,4.17
2023-09-18T10:51:06.936Z,6.53
2023-09-18T10:53:35.150Z,4.53
2023-09-18T10:56:05.563Z,6.20
2023-09-18T10:58:36.620Z,4.40
2023-09-18T11:01:06.625Z,6.43
2023-09-18T11:03:36.898Z,3.80
2023-09-18T11:06:06.426Z,5.30
2023-09-18T11:08:36.728Z,4.47
2023-09-18T11:11:10.857Z,6.27
2023-09-18T11:13:41.784Z,4.00
2023-09-18T11:16:22.874Z,6.27
2023-09-18T11:18:55.819Z,5.80
2023-09-18T11:21:28.824Z,8.50
2023-09-18T11:24:00.849Z,4.00
2023-09-18T11:26:31.403Z,4.80
2023-09-18T11:29:05.961Z,6.47
2023-09-18T11:31:48.789Z,4.10
2023-09-18T11:34:23.067Z,3.83
2023-09-18T11:36:51.470Z,3.90
2023-09-18T11:39:38.570Z,7.97
2023-09-18T11:42:11.623Z,3.90
2023-09-18T11:44:43.630Z,4.20
2023-09-18T11:47:19.006Z,5.17
2023-09-18T11:49:56.352Z,4.50
2023-09-18T11:52:25.797Z,5.90
2023-09-18T11:54:55.644Z,5.93
2023-09-18T11:57:23.528Z,6.00
2023-09-18T11:59:52.113Z,6.60
2023-09-18T12:02:29.118Z,3.60
2023-09-18T12:04:58.980Z,5.47
2023-09-18T12:07:27.091Z,4.83
2023-09-18T12:09:56.143Z,6.87
2023-09-18T12:12:24.166Z,5.83
2023-09-18T12:14:54.595Z,4.83
2023-09-18T12:17:23.435Z,4.00
2023-09-18T12:19:55.656Z,4.07
2023-09-18T12:22:29.351Z,8.10
2023-09-18T12:25:13.985Z,6.10
2023-09-18T12:27:44.558Z,5.33
2023-09-18T12:30:21.907Z,7.60
2023-09-18T12:32:51.179Z,9.70
2023-09-18T12:35:20.176Z,4.20
2023-09-18T12:37:49.781Z,8.70
2023-09-18T12:40:25.068Z,6.33
2023-09-18T12:42:54.930Z,5.77
2023-09-18T12:45:23.271Z,6.10
2023-09-18T12:47:52.349Z,7.70
2023-09-18T12:50:20.304Z,4.80
2023-09-18T12:52:49.649Z,6.97
2023-09-18T12:55:28.377Z,5.00
2023-09-18T12:57:56.931Z,6.60
2023-09-18T13:00:27.953Z,7.00
2023-09-18T13:02:57.654Z,4.93
2023-09-18T13:05:27.587Z,9.37
2023-09-18T13:07:57.607Z,5.87
2023-09-18T13:10:29.051Z,11.93
2023-09-18T13:12:57.735Z,4.27
2023-09-18T13:15:30.119Z,3.27
2023-09-18T13:17:59.219Z,6.53
2023-09-18T13:20:30.299Z,5.20
2023-09-18T13:23:02.071Z,5.50
2023-09-18T13:25:33.350Z,5.87
2023-09-18T13:28:01.570Z,6.33
2023-09-18T13:30:29.898Z,7.10
2023-09-18T13:33:04.734Z,6.60
2023-09-18T13:35:32.949Z,6.47
2023-09-18T13:38:02.351Z,6.70
2023-09-18T13:40:30.508Z,4.33
2023-09-18T13:42:58.365Z,3.00
2023-09-18T13:45:26.490Z,5.70
2023-09-18T13:47:55.629Z,4.53
2023-09-18T13:50:38.017Z,4.03
2023-09-18T13:53:08.014Z,4.23
2023-09-18T13:55:37.602Z,7.27
2023-09-18T13:58:06.271Z,11.73
2023-09-18T14:00:34.811Z,7.13
2023-09-18T14:03:04.189Z,5.17
2023-09-18T14:05:35.640Z,9.20
2023-09-18T14:08:05.299Z,4.07
2023-09-18T14:10:34.662Z,3.47
2023-09-18T14:13:02.563Z,5.37
2023-09-18T14:15:30.639Z,3.87
2023-09-18T14:17:59.909Z,2.70
2023-09-18T14:20:28.327Z,4.10
2023-09-18T14:22:56.104Z,7.27
2023-09-18T14:25:25.473Z,5.13
2023-09-18T14:27:54.965Z,6.60
2023-09-18T14:30:27.369Z,7.97
2023-09-18T14:32:55.242Z,8.30
2023-09-18T14:35:24.546Z,4.83
2023-09-18T14:37:52.453Z,10.00
2023-09-18T14:40:22.080Z,11.30
2023-09-18T14:42:51.336Z,26.97
2023-09-18T14:45:20.807Z,7.37
2023-09-18T14:47:48.932Z,7.20
2023-09-18T14:50:16.972Z,5.70
2023-09-18T14:52:44.807Z,7.33
2023-09-18T14:55:14.078Z,5.93
2023-09-18T14:57:42.114Z,5.97
2023-09-18T15:00:13.955Z,6.60
2023-09-18T15:02:43.966Z,4.50
2023-09-18T15:05:13.756Z,5.10
2023-09-18T15:07:41.913Z,6.67
2023-09-18T15:10:11.533Z,7.10
2023-09-18T15:12:42.145Z,6.07
2023-09-18T15:15:10.772Z,4.97
2023-09-18T15:17:39.908Z,6.33
2023-09-18T15:20:13.085Z,7.33
2023-09-18T15:22:41.091Z,6.90
2023-09-18T15:25:09.882Z,6.40
2023-09-18T15:27:38.088Z,7.03
2023-09-18T15:30:08.425Z,9.30
2023-09-18T15:32:49.275Z,2.80
2023-09-18T15:35:21.560Z,2.40
2023-09-18T15:37:49.323Z,2.80
2023-09-18T15:40:19.993Z,2.50
2023-09-18T15:42:48.782Z,8.30
2023-09-18T15:45:17.196Z,6.10
2023-09-18T15:47:46.382Z,4.20
2023-09-18T15:50:15.122Z,3.77
2023-09-18T15:52:44.547Z,4.77
2023-09-18T15:55:12.690Z,5.80
2023-09-18T15:57:43.456Z,2.70
2023-09-18T16:00:13.235Z,4.20
2023-09-18T16:02:43.189Z,3.27
2023-09-18T16:05:12.506Z,3.77
2023-09-18T16:07:41.907Z,7.80
2023-09-18T16:10:11.952Z,3.27
2023-09-18T16:12:39.967Z,4.20
2023-09-18T16:15:09.397Z,4.23
2023-09-18T16:17:37.316Z,7.13
2023-09-18T16:20:07.625Z,3.77
2023-09-18T16:22:35.657Z,3.73
2023-09-18T16:25:03.649Z,3.20
2023-09-18T16:27:32.770Z,3.30
2023-09-18T16:30:00.703Z,3.73
2023-09-18T16:32:30.918Z,6.20
2023-09-18T16:34:58.712Z,5.43
2023-09-18T16:37:26.562Z,4.53
2023-09-18T16:39:54.376Z,2.70
2023-09-18T16:42:22.094Z,5.07
2023-09-18T16:44:51.474Z,4.67
2023-09-18T16:47:19.962Z,3.90
2023-09-18T16:49:47.818Z,3.90
2023-09-18T16:52:15.809Z,4.00
2023-09-18T16:54:43.546Z,3.97
2023-09-18T16:57:13.902Z,4.30
2023-09-18T16:59:41.984Z,5.80
2023-09-18T17:02:11.118Z,4.27
2023-09-18T17:04:41.469Z,4.50
2023-09-18T17:07:10.538Z,5.27
2023-09-18T17:09:38.613Z,4.17
2023-09-18T17:12:07.805Z,4.67
2023-09-18T17:14:35.806Z,5.00
2023-09-18T17:17:03.710Z,3.10
2023-09-18T17:19:32.941Z,5.13
2023-09-18T17:22:04.886Z,5.83
2023-09-18T17:24:36.193Z,5.50
2023-09-18T17:27:04.727Z,4.83
2023-09-18T17:29:32.897Z,4.10
2023-09-18T17:32:00.691Z,4.70
2023-09-18T17:34:29.460Z,5.90
2023-09-18T17:36:58.579Z,5.90
2023-09-18T17:39:29.192Z,4.97
2023-09-18T17:41:57.457Z,3.83
2023-09-18T17:44:25.474Z,6.63
2023-09-18T17:46:53.264Z,4.07
2023-09-18T17:49:23.405Z,8.10
2023-09-18T17:51:51.217Z,4.60
2023-09-18T17:54:20.347Z,4.67
2023-09-18T17:56:48.144Z,3.90
2023-09-18T17:59:16.638Z,5.17
2023-09-18T18:01:45.026Z,4.50
2023-09-18T18:04:12.997Z,4.53
2023-09-18T18:06:41.210Z,4.43
2023-09-18T18:09:09.110Z,4.23
2023-09-18T18:11:38.325Z,4.60
2023-09-18T18:14:06.375Z,4.53
2023-09-18T18:16:34.203Z,4.70
2023-09-18T18:19:02.039Z,4.03
2023-09-18T18:21:30.292Z,4.83
2023-09-18T18:23:58.262Z,4.10
2023-09-18T18:26:28.840Z,5.70
2023-09-18T18:29:05.008Z,5.00
2023-09-18T18:31:33.596Z,3.70
2023-09-18T18:34:07.156Z,7.73
2023-09-18T18:36:35.699Z,19.37
2023-09-18T18:39:06.705Z,11.73
2023-09-18T18:41:35.538Z,6.20
2023-09-18T18:44:06.255Z,8.17
2023-09-18T18:46:34.712Z,9.77
2023-09-18T18:49:03.544Z,9.53
2023-09-18T18:51:33.251Z,7.47
2023-09-18T18:54:04.582Z,5.00
2023-09-18T18:56:33.064Z,5.97
2023-09-18T18:59:01.315Z,3.93
2023-09-18T19:01:31.637Z,6.30
2023-09-18T19:04:00.426Z,4.90
2023-09-18T19:06:28.279Z,4.10
2023-09-18T19:09:00.283Z,3.80
2023-09-18T19:11:30.790Z,5.23
2023-09-18T19:13:59.739Z,7.03
2023-09-18T19:16:27.998Z,4.20
2023-09-18T19:18:58.464Z,6.30
2023-09-18T19:21:26.736Z,6.17
2023-09-18T19:23:54.918Z,7.13
2023-09-18T19:26:22.849Z,3.47
2023-09-18T19:28:52.346Z,4.70
2023-09-18T19:31:22.291Z,2.90
2023-09-18T19:33:51.203Z,3.53
2023-09-18T19:36:21.044Z,4.23
2023-09-18T19:38:49.168Z,3.43
2023-09-18T19:41:20.517Z,2.87
2023-09-18T19:43:48.780Z,3.87
2023-09-18T19:46:19.819Z,2.30
2023-09-18T19:48:49.572Z,3.17
2023-09-18T19:51:18.472Z,2.17
2023-09-18T19:53:50.090Z,3.13
2023-09-18T19:56:20.689Z,3.77
2023-09-18T19:58:49.642Z,5.53
2023-09-18T20:01:18.324Z,3.80
2023-09-18T20:03:48.740Z,2.07
2023-09-18T20:06:16.696Z,5.43
2023-09-18T20:08:45.013Z,3.83
2023-09-18T20:11:14.235Z,3.30
2023-09-18T20:13:42.509Z,2.53
2023-09-18T20:16:10.629Z,3.60
2023-09-18T20:18:39.560Z,4.37
2023-09-18T20:21:10.207Z,3.57
2023-09-18T20:23:38.058Z,1.50
2023-09-18T20:26:07.240Z,2.50
2023-09-18T20:28:37.815Z,2.43
2023-09-18T20:31:08.329Z,3.43
2023-09-18T20:33:37.586Z,2.53
2023-09-18T20:36:06.424Z,2.80
2023-09-18T20:38:41.310Z,4.10
2023-09-18T20:41:12.355Z,2.20
2023-09-18T20:43:46.452Z,4.27
2023-09-18T20:46:14.393Z,3.10
2023-09-18T20:48:42.591Z,2.60
2023-09-18T20:51:11.930Z,2.10
2023-09-18T20:53:40.245Z,1.90
2023-09-18T20:56:13.000Z,2.70
2023-09-18T20:58:42.376Z,4.33
2023-09-18T21:01:10.224Z,3.20
2023-09-18T21:03:38.795Z,2.33
2023-09-18T21:06:07.248Z,3.07
2023-09-18T21:08:35.547Z,2.30
2023-09-18T21:11:04.008Z,4.03
2023-09-18T21:13:33.524Z,1.93
2023-09-18T21:16:04.528Z,1.80
2023-09-18T21:18:32.677Z,1.87
2023-09-18T21:21:01.126Z,2.27
2023-09-18T21:23:28.984Z,6.23
2023-09-18T21:25:56.704Z,1.60
2023-09-18T21:28:24.656Z,1.80
2023-09-18T21:30:52.506Z,2.97
2023-09-18T21:33:21.732Z,3.30
2023-09-18T21:35:49.539Z,2.93
2023-09-18T21:38:19.118Z,2.70
2023-09-18T21:40:46.861Z,1.83
2023-09-18T21:43:15.653Z,2.90
2023-09-18T21:45:43.487Z,2.63
2023-09-18T21:48:11.426Z,2.63
2023-09-18T21:50:40.646Z,3.10
2023-09-18T21:53:08.598Z,3.10
2023-09-18T21:55:37.072Z,4.27
2023-09-18T21:58:05.258Z,3.60
2023-09-18T22:00:35.982Z,1.70
2023-09-18T22:03:04.047Z,2.00
2023-09-18T22:05:31.969Z,3.00
2023-09-18T22:08:01.154Z,2.37
2023-09-18T22:10:28.921Z,4.30
2023-09-18T22:12:56.777Z,3.27
2023-09-18T22:15:24.611Z,3.50
2023-09-18T22:17:52.498Z,2.57
2023-09-18T22:20:20.698Z,1.83
2023-09-18T22:22:49.529Z,2.33
2023-09-18T22:25:18.721Z,2.40
2023-09-18T22:27:49.483Z,3.03
2023-09-18T22:30:17.376Z,2.93
2023-09-18T22:32:45.287Z,3.13
2023-09-18T22:35:13.080Z,3.20
2023-09-18T22:37:41.699Z,2.80
2023-09-18T22:40:08.392Z,1.73
2023-09-18T22:43:16.023Z,2.63
2023-09-18T22:46:22.145Z,4.23
2023-09-18T22:49:28.010Z,2.33
2023-09-18T22:52:33.788Z,2.20
2023-09-18T22:55:03.445Z,4.13
2023-09-18T22:57:32.178Z,2.97
2023-09-18T23:00:00.947Z,5.53
2023-09-18T23:02:29.945Z,5.10
2023-09-18T23:05:00.234Z,2.20
2023-09-18T23:07:28.154Z,4.17
2023-09-18T23:09:57.872Z,2.83
2023-09-18T23:12:29.814Z,2.57
2023-09-18T23:14:57.604Z,3.40
2023-09-18T23:17:27.445Z,2.67
2023-09-18T23:19:55.665Z,5.33
2023-09-18T23:22:24.435Z,2.37
2023-09-18T23:24:53.619Z,2.27
2023-09-18T23:27:20.508Z,5.03
2023-09-18T23:29:49.617Z,3.27
2023-09-18T23:32:18.603Z,9.33
2023-09-18T23:34:49.340Z,2.50
2023-09-18T23:37:19.019Z,3.43
2023-09-18T23:39:48.130Z,2.70
2023-09-18T23:42:16.083Z,1.70
2023-09-18T23:44:46.197Z,3.10
2023-09-18T23:47:15.744Z,2.00
2023-09-18T23:49:43.728Z,6.13
2023-09-18T23:52:11.635Z,1.93
2023-09-18T23:54:40.240Z,2.10
2023-09-18T23:57:08.973Z,3.20
2023-09-18T23:59:37.580Z,2.10
